sensor_id;sensor_type;location;lat;lon;timestamp;temperature;humidity
31379;DHT22;61664;48.112;11.662;2023-06-26T00:01:03;22.20;41.00
31379;DHT22;61664;48.112;11.662;2023-06-26T00:03:32;22.10;41.00
31379;DHT22;61664;48.112;11.662;2023-06-26T00:05:59;22.10;41.00
31379;DHT22;61664;48.112;11.662;2023-06-26T00:08:28;22.00;41.60
31379;DHT22;61664;48.112;11.662;2023-06-26T00:10:55;22.00;41.20
31379;DHT22;61664;48.112;11.662;2023-06-26T00:13:22;21.90;41.20
31379;DHT22;61664;48.112;11.662;2023-06-26T00:15:50;21.90;41.20
31379;DHT22;61664;48.112;11.662;2023-06-26T00:18:17;21.80;41.20
31379;DHT22;61664;48.112;11.662;2023-06-26T00:20:44;21.80;41.40
31379;DHT22;61664;48.112;11.662;2023-06-26T00:23:12;21.70;41.40
31379;DHT22;61664;48.112;11.662;2023-06-26T00:25:40;21.70;41.50
31379;DHT22;61664;48.112;11.662;2023-06-26T00:28:06;21.60;41.50
31379;DHT22;61664;48.112;11.662;2023-06-26T00:30:33;21.60;41.70
31379;DHT22;61664;48.112;11.662;2023-06-26T00:33:00;21.50;41.70
31379;DHT22;61664;48.112;11.662;2023-06-26T00:35:27;21.50;41.80
31379;DHT22;61664;48.112;11.662;2023-06-26T00:37:54;21.50;41.90
31379;DHT22;61664;48.112;11.662;2023-06-26T00:40:21;21.50;42.00
31379;DHT22;61664;48.112;11.662;2023-06-26T00:42:48;21.40;41.90
31379;DHT22;61664;48.112;11.662;2023-06-26T00:45:15;21.40;42.00
31379;DHT22;61664;48.112;11.662;2023-06-26T00:48:08;21.40;42.00
31379;DHT22;61664;48.112;11.662;2023-06-26T00:50:38;21.40;42.00
31379;DHT22;61664;48.112;11.662;2023-06-26T00:53:06;21.40;42.10
31379;DHT22;61664;48.112;11.662;2023-06-26T00:55:33;21.40;42.00
31379;DHT22;61664;48.112;11.662;2023-06-26T00:57:59;21.30;42.00
31379;DHT22;61664;48.112;11.662;2023-06-26T01:00:26;21.30;42.00
31379;DHT22;61664;48.112;11.662;2023-06-26T01:02:54;21.30;42.10
31379;DHT22;61664;48.112;11.662;2023-06-26T01:05:26;21.30;42.10
31379;DHT22;61664;48.112;11.662;2023-06-26T01:07:55;21.20;42.10
31379;DHT22;61664;48.112;11.662;2023-06-26T01:10:23;21.20;42.10
31379;DHT22;61664;48.112;11.662;2023-06-26T01:12:50;21.20;42.10
31379;DHT22;61664;48.112;11.662;2023-06-26T01:15:17;21.20;42.20
31379;DHT22;61664;48.112;11.662;2023-06-26T01:17:44;21.20;42.30
31379;DHT22;61664;48.112;11.662;2023-06-26T01:20:13;21.10;42.20
31379;DHT22;61664;48.112;11.662;2023-06-26T01:22:47;21.10;42.30
31379;DHT22;61664;48.112;11.662;2023-06-26T01:25:28;21.10;42.30
31379;DHT22;61664;48.112;11.662;2023-06-26T01:28:05;21.10;42.40
31379;DHT22;61664;48.112;11.662;2023-06-26T01:30:34;21.00;42.40
31379;DHT22;61664;48.112;11.662;2023-06-26T01:33:04;21.00;42.40
31379;DHT22;61664;48.112;11.662;2023-06-26T01:35:31;21.00;42.50
31379;DHT22;61664;48.112;11.662;2023-06-26T01:38:18;20.90;42.40
31379;DHT22;61664;48.112;11.662;2023-06-26T01:40:46;20.90;42.60
31379;DHT22;61664;48.112;11.662;2023-06-26T01:43:54;20.90;42.70
31379;DHT22;61664;48.112;11.662;2023-06-26T01:49:19;20.90;42.60
31379;DHT22;61664;48.112;11.662;2023-06-26T01:54:47;20.90;42.70
31379;DHT22;61664;48.112;11.662;2023-06-26T01:57:19;20.90;42.70
31379;DHT22;61664;48.112;11.662;2023-06-26T01:59:50;20.80;42.60
31379;DHT22;61664;48.112;11.662;2023-06-26T02:02:18;20.90;42.80
31379;DHT22;61664;48.112;11.662;2023-06-26T02:04:45;20.90;42.80
31379;DHT22;61664;48.112;11.662;2023-06-26T02:07:14;20.80;42.70
31379;DHT22;61664;48.112;11.662;2023-06-26T02:09:41;20.90;42.90
31379;DHT22;61664;48.112;11.662;2023-06-26T02:12:08;20.80;42.60
31379;DHT22;61664;48.112;11.662;2023-06-26T02:14:35;20.90;42.70
31379;DHT22;61664;48.112;11.662;2023-06-26T02:17:02;20.90;42.60
31379;DHT22;61664;48.112;11.662;2023-06-26T02:19:29;20.80;42.50
31379;DHT22;61664;48.112;11.662;2023-06-26T02:22:52;20.80;42.70
31379;DHT22;61664;48.112;11.662;2023-06-26T02:25:59;20.80;42.80
31379;DHT22;61664;48.112;11.662;2023-06-26T02:28:42;20.80;43.00
31379;DHT22;61664;48.112;11.662;2023-06-26T02:31:35;20.80;43.00
31379;DHT22;61664;48.112;11.662;2023-06-26T02:34:02;20.80;43.10
31379;DHT22;61664;48.112;11.662;2023-06-26T02:36:29;20.80;42.90
31379;DHT22;61664;48.112;11.662;2023-06-26T02:38:55;20.80;42.90
31379;DHT22;61664;48.112;11.662;2023-06-26T02:41:22;20.80;42.90
31379;DHT22;61664;48.112;11.662;2023-06-26T02:43:49;20.80;43.00
31379;DHT22;61664;48.112;11.662;2023-06-26T02:46:16;20.70;42.90
31379;DHT22;61664;48.112;11.662;2023-06-26T02:48:43;20.70;42.90
31379;DHT22;61664;48.112;11.662;2023-06-26T02:51:10;20.70;43.00
31379;DHT22;61664;48.112;11.662;2023-06-26T02:53:37;20.70;42.90
31379;DHT22;61664;48.112;11.662;2023-06-26T02:56:03;20.70;42.90
31379;DHT22;61664;48.112;11.662;2023-06-26T02:58:30;20.70;43.00
31379;DHT22;61664;48.112;11.662;2023-06-26T03:00:57;20.60;42.80
31379;DHT22;61664;48.112;11.662;2023-06-26T03:03:24;20.60;43.00
31379;DHT22;61664;48.112;11.662;2023-06-26T03:05:51;20.60;43.00
31379;DHT22;61664;48.112;11.662;2023-06-26T03:08:18;20.50;43.10
31379;DHT22;61664;48.112;11.662;2023-06-26T03:10:45;20.50;43.00
31379;DHT22;61664;48.112;11.662;2023-06-26T03:13:11;20.50;43.00
31379;DHT22;61664;48.112;11.662;2023-06-26T03:15:38;20.40;43.10
31379;DHT22;61664;48.112;11.662;2023-06-26T03:18:05;20.40;43.30
31379;DHT22;61664;48.112;11.662;2023-06-26T03:20:32;20.40;43.60
31379;DHT22;61664;48.112;11.662;2023-06-26T03:22:58;20.30;43.60
31379;DHT22;61664;48.112;11.662;2023-06-26T03:25:25;20.30;43.70
31379;DHT22;61664;48.112;11.662;2023-06-26T03:27:52;20.20;43.60
31379;DHT22;61664;48.112;11.662;2023-06-26T03:30:19;20.20;43.60
31379;DHT22;61664;48.112;11.662;2023-06-26T03:32:46;20.20;43.50
31379;DHT22;61664;48.112;11.662;2023-06-26T03:35:13;20.10;43.50
31379;DHT22;61664;48.112;11.662;2023-06-26T03:37:40;20.10;43.70
31379;DHT22;61664;48.112;11.662;2023-06-26T03:40:07;20.10;43.70
31379;DHT22;61664;48.112;11.662;2023-06-26T03:42:34;20.10;43.70
31379;DHT22;61664;48.112;11.662;2023-06-26T03:45:01;20.10;43.60
31379;DHT22;61664;48.112;11.662;2023-06-26T03:47:28;20.10;43.90
31379;DHT22;61664;48.112;11.662;2023-06-26T03:49:55;20.10;44.00
31379;DHT22;61664;48.112;11.662;2023-06-26T03:52:22;20.10;44.20
31379;DHT22;61664;48.112;11.662;2023-06-26T03:55:21;20.20;44.10
31379;DHT22;61664;48.112;11.662;2023-06-26T03:57:50;20.20;44.10
31379;DHT22;61664;48.112;11.662;2023-06-26T04:00:16;20.20;44.00
31379;DHT22;61664;48.112;11.662;2023-06-26T04:02:44;20.20;44.10
31379;DHT22;61664;48.112;11.662;2023-06-26T04:05:11;20.30;44.20
31379;DHT22;61664;48.112;11.662;2023-06-26T04:07:38;20.30;44.10
31379;DHT22;61664;48.112;11.662;2023-06-26T04:10:06;20.30;44.10
31379;DHT22;61664;48.112;11.662;2023-06-26T04:12:33;20.30;44.20
31379;DHT22;61664;48.112;11.662;2023-06-26T04:15:00;20.30;44.20
31379;DHT22;61664;48.112;11.662;2023-06-26T04:17:26;20.30;44.00
31379;DHT22;61664;48.112;11.662;2023-06-26T04:19:53;20.30;44.10
31379;DHT22;61664;48.112;11.662;2023-06-26T04:22:20;20.40;44.20
31379;DHT22;61664;48.112;11.662;2023-06-26T04:24:47;20.40;44.50
31379;DHT22;61664;48.112;11.662;2023-06-26T04:27:14;20.40;44.30
31379;DHT22;61664;48.112;11.662;2023-06-26T04:29:41;20.40;44.40
31379;DHT22;61664;48.112;11.662;2023-06-26T04:32:07;20.50;44.70
31379;DHT22;61664;48.112;11.662;2023-06-26T04:34:34;20.50;44.60
31379;DHT22;61664;48.112;11.662;2023-06-26T04:37:02;20.60;44.60
31379;DHT22;61664;48.112;11.662;2023-06-26T04:39:32;20.60;44.60
31379;DHT22;61664;48.112;11.662;2023-06-26T04:41:59;20.70;44.60
31379;DHT22;61664;48.112;11.662;2023-06-26T04:44:26;20.80;45.30
31379;DHT22;61664;48.112;11.662;2023-06-26T04:46:53;20.80;44.80
31379;DHT22;61664;48.112;11.662;2023-06-26T04:49:52;20.90;44.60
31379;DHT22;61664;48.112;11.662;2023-06-26T04:52:56;21.00;44.80
31379;DHT22;61664;48.112;11.662;2023-06-26T04:55:45;21.00;44.60
31379;DHT22;61664;48.112;11.662;2023-06-26T04:58:25;21.10;44.70
31379;DHT22;61664;48.112;11.662;2023-06-26T05:01:26;21.10;44.40
31379;DHT22;61664;48.112;11.662;2023-06-26T05:03:57;21.20;44.40
31379;DHT22;61664;48.112;11.662;2023-06-26T05:06:24;21.30;44.30
31379;DHT22;61664;48.112;11.662;2023-06-26T05:08:51;21.40;44.50
31379;DHT22;61664;48.112;11.662;2023-06-26T05:11:17;21.40;44.50
31379;DHT22;61664;48.112;11.662;2023-06-26T05:13:44;21.50;44.40
31379;DHT22;61664;48.112;11.662;2023-06-26T05:16:11;21.60;44.50
31379;DHT22;61664;48.112;11.662;2023-06-26T05:18:38;21.70;44.40
31379;DHT22;61664;48.112;11.662;2023-06-26T05:21:05;21.80;44.30
31379;DHT22;61664;48.112;11.662;2023-06-26T05:23:33;21.90;44.40
31379;DHT22;61664;48.112;11.662;2023-06-26T05:26:01;22.00;44.30
31379;DHT22;61664;48.112;11.662;2023-06-26T05:28:29;22.10;44.30
31379;DHT22;61664;48.112;11.662;2023-06-26T05:31:00;22.20;44.30
31379;DHT22;61664;48.112;11.662;2023-06-26T05:33:27;22.30;44.30
31379;DHT22;61664;48.112;11.662;2023-06-26T05:35:56;22.30;44.30
31379;DHT22;61664;48.112;11.662;2023-06-26T05:38:25;22.40;44.20
31379;DHT22;61664;48.112;11.662;2023-06-26T05:40:52;22.50;44.30
31379;DHT22;61664;48.112;11.662;2023-06-26T05:43:20;22.60;44.10
31379;DHT22;61664;48.112;11.662;2023-06-26T05:45:53;22.70;44.30
31379;DHT22;61664;48.112;11.662;2023-06-26T05:48:20;22.70;44.30
31379;DHT22;61664;48.112;11.662;2023-06-26T05:50:47;22.80;44.10
31379;DHT22;61664;48.112;11.662;2023-06-26T05:53:14;22.90;44.10
31379;DHT22;61664;48.112;11.662;2023-06-26T05:55:41;23.00;44.20
31379;DHT22;61664;48.112;11.662;2023-06-26T05:58:11;23.10;44.30
31379;DHT22;61664;48.112;11.662;2023-06-26T06:00:39;23.10;44.20
31379;DHT22;61664;48.112;11.662;2023-06-26T06:03:10;23.20;44.00
31379;DHT22;61664;48.112;11.662;2023-06-26T06:05:37;23.20;43.90
31379;DHT22;61664;48.112;11.662;2023-06-26T06:08:04;23.30;44.10
31379;DHT22;61664;48.112;11.662;2023-06-26T06:10:31;23.40;44.10
31379;DHT22;61664;48.112;11.662;2023-06-26T06:12:58;23.40;44.20
31379;DHT22;61664;48.112;11.662;2023-06-26T06:15:25;23.50;44.00
31379;DHT22;61664;48.112;11.662;2023-06-26T06:17:54;23.60;44.10
31379;DHT22;61664;48.112;11.662;2023-06-26T06:20:21;23.70;44.00
31379;DHT22;61664;48.112;11.662;2023-06-26T06:22:48;23.70;44.20
31379;DHT22;61664;48.112;11.662;2023-06-26T06:25:15;23.80;44.30
31379;DHT22;61664;48.112;11.662;2023-06-26T06:27:42;23.90;44.10
31379;DHT22;61664;48.112;11.662;2023-06-26T06:30:10;24.00;44.10
31379;DHT22;61664;48.112;11.662;2023-06-26T06:32:37;24.10;44.20
31379;DHT22;61664;48.112;11.662;2023-06-26T06:35:04;24.20;44.20
31379;DHT22;61664;48.112;11.662;2023-06-26T06:37:39;24.30;43.90
31379;DHT22;61664;48.112;11.662;2023-06-26T06:40:06;24.40;43.70
31379;DHT22;61664;48.112;11.662;2023-06-26T06:42:34;24.60;43.50
31379;DHT22;61664;48.112;11.662;2023-06-26T06:45:02;24.70;43.40
31379;DHT22;61664;48.112;11.662;2023-06-26T06:47:31;24.80;43.30
31379;DHT22;61664;48.112;11.662;2023-06-26T06:49:59;24.90;43.00
31379;DHT22;61664;48.112;11.662;2023-06-26T06:52:30;25.00;42.80
31379;DHT22;61664;48.112;11.662;2023-06-26T06:54:57;25.20;43.00
31379;DHT22;61664;48.112;11.662;2023-06-26T06:57:32;25.30;42.90
31379;DHT22;61664;48.112;11.662;2023-06-26T07:00:03;25.40;42.50
31379;DHT22;61664;48.112;11.662;2023-06-26T07:02:31;25.50;42.40
31379;DHT22;61664;48.112;11.662;2023-06-26T07:04:57;25.60;42.40
31379;DHT22;61664;48.112;11.662;2023-06-26T07:07:27;25.80;42.50
31379;DHT22;61664;48.112;11.662;2023-06-26T07:09:55;25.90;41.80
31379;DHT22;61664;48.112;11.662;2023-06-26T07:12:22;26.00;41.60
31379;DHT22;61664;48.112;11.662;2023-06-26T07:14:49;26.20;42.00
31379;DHT22;61664;48.112;11.662;2023-06-26T07:17:16;26.20;42.00
31379;DHT22;61664;48.112;11.662;2023-06-26T07:19:43;26.40;41.80
31379;DHT22;61664;48.112;11.662;2023-06-26T07:22:10;26.50;41.70
31379;DHT22;61664;48.112;11.662;2023-06-26T07:24:37;26.60;41.40
31379;DHT22;61664;48.112;11.662;2023-06-26T07:27:04;26.70;40.90
31379;DHT22;61664;48.112;11.662;2023-06-26T07:29:31;26.80;41.00
31379;DHT22;61664;48.112;11.662;2023-06-26T07:31:58;26.90;41.00
31379;DHT22;61664;48.112;11.662;2023-06-26T07:34:25;27.00;41.20
31379;DHT22;61664;48.112;11.662;2023-06-26T07:36:51;27.20;41.30
31379;DHT22;61664;48.112;11.662;2023-06-26T07:39:18;27.20;39.30
31379;DHT22;61664;48.112;11.662;2023-06-26T07:41:49;27.30;40.60
31379;DHT22;61664;48.112;11.662;2023-06-26T07:44:16;27.40;39.30
31379;DHT22;61664;48.112;11.662;2023-06-26T07:46:43;27.50;39.70
31379;DHT22;61664;48.112;11.662;2023-06-26T07:49:11;27.60;40.10
31379;DHT22;61664;48.112;11.662;2023-06-26T07:51:38;27.70;40.60
31379;DHT22;61664;48.112;11.662;2023-06-26T07:54:05;27.80;40.90
31379;DHT22;61664;48.112;11.662;2023-06-26T07:56:35;27.90;40.90
31379;DHT22;61664;48.112;11.662;2023-06-26T07:59:18;27.90;39.70
31379;DHT22;61664;48.112;11.662;2023-06-26T08:01:44;28.10;39.50
31379;DHT22;61664;48.112;11.662;2023-06-26T08:04:11;28.20;39.00
31379;DHT22;61664;48.112;11.662;2023-06-26T08:06:38;28.30;39.20
31379;DHT22;61664;48.112;11.662;2023-06-26T08:09:07;28.40;40.00
31379;DHT22;61664;48.112;11.662;2023-06-26T08:11:34;28.50;40.40
31379;DHT22;61664;48.112;11.662;2023-06-26T08:14:01;28.50;39.70
31379;DHT22;61664;48.112;11.662;2023-06-26T08:16:27;28.60;38.00
31379;DHT22;61664;48.112;11.662;2023-06-26T08:18:54;28.60;37.80
31379;DHT22;61664;48.112;11.662;2023-06-26T08:21:21;28.70;39.50
31379;DHT22;61664;48.112;11.662;2023-06-26T08:23:48;28.80;39.90
31379;DHT22;61664;48.112;11.662;2023-06-26T08:26:14;28.90;39.20
31379;DHT22;61664;48.112;11.662;2023-06-26T08:28:41;29.00;40.40
31379;DHT22;61664;48.112;11.662;2023-06-26T08:31:08;29.10;39.80
31379;DHT22;61664;48.112;11.662;2023-06-26T08:33:35;29.20;39.80
31379;DHT22;61664;48.112;11.662;2023-06-26T08:36:02;29.40;39.40
31379;DHT22;61664;48.112;11.662;2023-06-26T08:38:29;29.40;39.00
31379;DHT22;61664;48.112;11.662;2023-06-26T08:40:56;29.60;38.90
31379;DHT22;61664;48.112;11.662;2023-06-26T08:43:23;29.70;38.30
31379;DHT22;61664;48.112;11.662;2023-06-26T08:45:49;29.80;38.80
31379;DHT22;61664;48.112;11.662;2023-06-26T08:48:18;29.80;38.20
31379;DHT22;61664;48.112;11.662;2023-06-26T08:50:49;29.90;38.40
31379;DHT22;61664;48.112;11.662;2023-06-26T08:56:17;30.20;36.60
31379;DHT22;61664;48.112;11.662;2023-06-26T08:58:48;30.50;38.70
31379;DHT22;61664;48.112;11.662;2023-06-26T09:01:16;30.70;37.80
31379;DHT22;61664;48.112;11.662;2023-06-26T09:03:44;31.10;37.40
31379;DHT22;61664;48.112;11.662;2023-06-26T09:06:11;31.40;39.40
31379;DHT22;61664;48.112;11.662;2023-06-26T09:08:38;31.90;38.00
31379;DHT22;61664;48.112;11.662;2023-06-26T09:11:05;32.40;38.70
31379;DHT22;61664;48.112;11.662;2023-06-26T09:13:31;32.80;38.10
31379;DHT22;61664;48.112;11.662;2023-06-26T09:15:58;33.30;37.00
31379;DHT22;61664;48.112;11.662;2023-06-26T09:18:26;33.80;36.70
31379;DHT22;61664;48.112;11.662;2023-06-26T09:20:52;34.20;35.30
31379;DHT22;61664;48.112;11.662;2023-06-26T09:23:21;34.60;37.60
31379;DHT22;61664;48.112;11.662;2023-06-26T09:25:48;35.00;36.90
31379;DHT22;61664;48.112;11.662;2023-06-26T09:28:15;35.40;38.70
31379;DHT22;61664;48.112;11.662;2023-06-26T09:30:43;35.80;37.60
31379;DHT22;61664;48.112;11.662;2023-06-26T09:33:15;36.20;37.30
31379;DHT22;61664;48.112;11.662;2023-06-26T09:35:46;36.60;35.50
31379;DHT22;61664;48.112;11.662;2023-06-26T09:38:14;37.00;34.20
31379;DHT22;61664;48.112;11.662;2023-06-26T09:40:41;37.30;32.60
31379;DHT22;61664;48.112;11.662;2023-06-26T09:43:09;37.40;33.40
31379;DHT22;61664;48.112;11.662;2023-06-26T09:45:39;37.70;32.00
31379;DHT22;61664;48.112;11.662;2023-06-26T09:48:07;37.80;33.50
31379;DHT22;61664;48.112;11.662;2023-06-26T09:50:35;37.90;34.80
31379;DHT22;61664;48.112;11.662;2023-06-26T09:53:07;38.10;32.80
31379;DHT22;61664;48.112;11.662;2023-06-26T09:55:40;38.30;33.00
31379;DHT22;61664;48.112;11.662;2023-06-26T09:58:11;38.30;33.90
31379;DHT22;61664;48.112;11.662;2023-06-26T10:00:42;38.10;32.60
31379;DHT22;61664;48.112;11.662;2023-06-26T10:03:11;37.90;32.80
31379;DHT22;61664;48.112;11.662;2023-06-26T10:05:41;37.70;33.60
31379;DHT22;61664;48.112;11.662;2023-06-26T10:08:08;37.60;33.70
31379;DHT22;61664;48.112;11.662;2023-06-26T10:10:36;37.40;33.60
31379;DHT22;61664;48.112;11.662;2023-06-26T10:13:08;37.30;28.70
31379;DHT22;61664;48.112;11.662;2023-06-26T10:15:44;37.10;32.30
31379;DHT22;61664;48.112;11.662;2023-06-26T10:18:12;37.10;27.80
31379;DHT22;61664;48.112;11.662;2023-06-26T10:20:40;37.00;30.20
31379;DHT22;61664;48.112;11.662;2023-06-26T10:23:10;37.00;31.60
31379;DHT22;61664;48.112;11.662;2023-06-26T10:25:38;36.90;30.20
31379;DHT22;61664;48.112;11.662;2023-06-26T10:28:07;36.90;31.70
31379;DHT22;61664;48.112;11.662;2023-06-26T10:30:35;37.00;30.60
31379;DHT22;61664;48.112;11.662;2023-06-26T10:33:06;37.30;29.70
31379;DHT22;61664;48.112;11.662;2023-06-26T10:35:40;37.70;31.20
31379;DHT22;61664;48.112;11.662;2023-06-26T10:38:09;37.90;32.50
31379;DHT22;61664;48.112;11.662;2023-06-26T10:40:43;38.10;30.60
31379;DHT22;61664;48.112;11.662;2023-06-26T10:43:12;38.10;32.00
31379;DHT22;61664;48.112;11.662;2023-06-26T10:45:46;38.10;30.60
31379;DHT22;61664;48.112;11.662;2023-06-26T10:48:20;38.00;30.20
31379;DHT22;61664;48.112;11.662;2023-06-26T10:50:49;37.90;30.80
31379;DHT22;61664;48.112;11.662;2023-06-26T10:55:54;38.20;29.80
31379;DHT22;61664;48.112;11.662;2023-06-26T11:03:48;38.20;31.20
31379;DHT22;61664;48.112;11.662;2023-06-26T11:06:25;38.30;28.00
31379;DHT22;61664;48.112;11.662;2023-06-26T11:14:26;38.30;28.60
31379;DHT22;61664;48.112;11.662;2023-06-26T11:16:57;38.00;29.60
31379;DHT22;61664;48.112;11.662;2023-06-26T11:19:25;37.80;28.00
31379;DHT22;61664;48.112;11.662;2023-06-26T11:21:58;37.40;29.10
31379;DHT22;61664;48.112;11.662;2023-06-26T11:24:26;37.10;29.50
31379;DHT22;61664;48.112;11.662;2023-06-26T11:26:53;36.70;29.10
31379;DHT22;61664;48.112;11.662;2023-06-26T11:29:20;36.50;28.60
31379;DHT22;61664;48.112;11.662;2023-06-26T11:31:47;36.30;29.50
31379;DHT22;61664;48.112;11.662;2023-06-26T11:34:13;36.00;29.20
31379;DHT22;61664;48.112;11.662;2023-06-26T11:36:41;35.80;28.60
31379;DHT22;61664;48.112;11.662;2023-06-26T11:39:09;35.60;29.10
31379;DHT22;61664;48.112;11.662;2023-06-26T11:41:37;35.50;29.10
31379;DHT22;61664;48.112;11.662;2023-06-26T11:44:06;35.30;29.70
31379;DHT22;61664;48.112;11.662;2023-06-26T11:46:34;35.20;29.40
31379;DHT22;61664;48.112;11.662;2023-06-26T11:49:05;35.10;29.60
31379;DHT22;61664;48.112;11.662;2023-06-26T11:51:33;35.00;29.50
31379;DHT22;61664;48.112;11.662;2023-06-26T11:54:00;34.90;29.90
31379;DHT22;61664;48.112;11.662;2023-06-26T11:56:31;34.80;30.00
31379;DHT22;61664;48.112;11.662;2023-06-26T11:59:02;34.70;29.70
31379;DHT22;61664;48.112;11.662;2023-06-26T12:01:33;34.70;29.60
31379;DHT22;61664;48.112;11.662;2023-06-26T12:04:02;34.80;29.40
31379;DHT22;61664;48.112;11.662;2023-06-26T12:06:32;34.80;29.80
31379;DHT22;61664;48.112;11.662;2023-06-26T12:09:01;34.80;29.50
31379;DHT22;61664;48.112;11.662;2023-06-26T12:11:32;34.80;29.50
31379;DHT22;61664;48.112;11.662;2023-06-26T12:14:00;34.80;29.60
31379;DHT22;61664;48.112;11.662;2023-06-26T12:16:31;34.70;30.00
31379;DHT22;61664;48.112;11.662;2023-06-26T12:19:03;34.60;29.40
31379;DHT22;61664;48.112;11.662;2023-06-26T12:24:04;34.60;29.60
31379;DHT22;61664;48.112;11.662;2023-06-26T12:26:31;34.60;28.60
31379;DHT22;61664;48.112;11.662;2023-06-26T12:29:07;34.60;29.30
31379;DHT22;61664;48.112;11.662;2023-06-26T12:31:44;34.70;28.60
31379;DHT22;61664;48.112;11.662;2023-06-26T12:34:13;34.70;29.10
31379;DHT22;61664;48.112;11.662;2023-06-26T12:36:48;34.70;29.30
31379;DHT22;61664;48.112;11.662;2023-06-26T12:39:19;34.80;29.00
31379;DHT22;61664;48.112;11.662;2023-06-26T12:44:22;34.70;29.00
31379;DHT22;61664;48.112;11.662;2023-06-26T12:46:58;34.60;29.40
31379;DHT22;61664;48.112;11.662;2023-06-26T12:49:42;34.70;29.70
31379;DHT22;61664;48.112;11.662;2023-06-26T12:52:11;34.80;29.80
31379;DHT22;61664;48.112;11.662;2023-06-26T12:54:40;34.80;29.20
31379;DHT22;61664;48.112;11.662;2023-06-26T12:57:08;34.80;29.20
31379;DHT22;61664;48.112;11.662;2023-06-26T12:59:36;34.80;29.90
31379;DHT22;61664;48.112;11.662;2023-06-26T13:02:04;34.80;30.00
31379;DHT22;61664;48.112;11.662;2023-06-26T13:04:32;34.90;29.50
31379;DHT22;61664;48.112;11.662;2023-06-26T13:06:59;35.20;29.70
31379;DHT22;61664;48.112;11.662;2023-06-26T13:09:26;35.40;30.00
31379;DHT22;61664;48.112;11.662;2023-06-26T13:11:54;35.50;28.30
31379;DHT22;61664;48.112;11.662;2023-06-26T13:14:21;35.80;29.60
31379;DHT22;61664;48.112;11.662;2023-06-26T13:16:48;35.90;29.10
31379;DHT22;61664;48.112;11.662;2023-06-26T13:19:15;36.10;28.90
31379;DHT22;61664;48.112;11.662;2023-06-26T13:21:42;36.30;29.70
31379;DHT22;61664;48.112;11.662;2023-06-26T13:24:09;36.50;30.20
31379;DHT22;61664;48.112;11.662;2023-06-26T13:26:36;36.80;29.30
31379;DHT22;61664;48.112;11.662;2023-06-26T13:29:04;37.00;28.20
31379;DHT22;61664;48.112;11.662;2023-06-26T13:31:32;37.30;28.80
31379;DHT22;61664;48.112;11.662;2023-06-26T13:33:59;37.60;29.10
31379;DHT22;61664;48.112;11.662;2023-06-26T13:36:27;37.70;29.70
31379;DHT22;61664;48.112;11.662;2023-06-26T13:38:54;37.70;27.60
31379;DHT22;61664;48.112;11.662;2023-06-26T13:41:24;37.80;28.00
31379;DHT22;61664;48.112;11.662;2023-06-26T13:43:51;37.80;28.70
31379;DHT22;61664;48.112;11.662;2023-06-26T13:46:20;37.90;26.60
31379;DHT22;61664;48.112;11.662;2023-06-26T13:48:47;37.90;28.10
31379;DHT22;61664;48.112;11.662;2023-06-26T13:51:14;37.90;28.00
31379;DHT22;61664;48.112;11.662;2023-06-26T13:53:41;38.00;27.70
31379;DHT22;61664;48.112;11.662;2023-06-26T13:56:08;37.90;27.30
31379;DHT22;61664;48.112;11.662;2023-06-26T13:58:35;37.90;27.30
31379;DHT22;61664;48.112;11.662;2023-06-26T14:01:03;37.70;27.90
31379;DHT22;61664;48.112;11.662;2023-06-26T14:03:33;37.60;27.70
31379;DHT22;61664;48.112;11.662;2023-06-26T14:06:00;37.30;27.80
31379;DHT22;61664;48.112;11.662;2023-06-26T14:08:27;37.10;28.00
31379;DHT22;61664;48.112;11.662;2023-06-26T14:10:54;37.00;27.60
31379;DHT22;61664;48.112;11.662;2023-06-26T14:13:21;36.70;28.20
31379;DHT22;61664;48.112;11.662;2023-06-26T14:15:49;36.50;28.40
31379;DHT22;61664;48.112;11.662;2023-06-26T14:18:20;36.30;28.40
31379;DHT22;61664;48.112;11.662;2023-06-26T14:20:51;36.10;28.90
31379;DHT22;61664;48.112;11.662;2023-06-26T14:23:18;36.10;29.60
31379;DHT22;61664;48.112;11.662;2023-06-26T14:25:45;36.50;30.00
31379;DHT22;61664;48.112;11.662;2023-06-26T14:28:15;37.00;30.30
31379;DHT22;61664;48.112;11.662;2023-06-26T14:30:42;37.60;29.60
31379;DHT22;61664;48.112;11.662;2023-06-26T14:33:09;38.30;30.90
31379;DHT22;61664;48.112;11.662;2023-06-26T14:35:36;39.00;31.00
31379;DHT22;61664;48.112;11.662;2023-06-26T14:38:03;39.80;27.60
31379;DHT22;61664;48.112;11.662;2023-06-26T14:40:30;40.30;29.60
31379;DHT22;61664;48.112;11.662;2023-06-26T14:42:57;41.00;30.10
31379;DHT22;61664;48.112;11.662;2023-06-26T14:45:24;41.50;30.80
31379;DHT22;61664;48.112;11.662;2023-06-26T14:47:52;42.20;29.30
31379;DHT22;61664;48.112;11.662;2023-06-26T14:50:19;42.60;29.30
31379;DHT22;61664;48.112;11.662;2023-06-26T14:52:46;42.80;28.40
31379;DHT22;61664;48.112;11.662;2023-06-26T14:55:12;42.90;28.00
31379;DHT22;61664;48.112;11.662;2023-06-26T14:57:39;42.90;28.10
31379;DHT22;61664;48.112;11.662;2023-06-26T15:00:06;42.90;27.20
31379;DHT22;61664;48.112;11.662;2023-06-26T15:02:34;42.80;25.40
31379;DHT22;61664;48.112;11.662;2023-06-26T15:05:01;42.50;26.00
31379;DHT22;61664;48.112;11.662;2023-06-26T15:07:27;42.00;26.80
31379;DHT22;61664;48.112;11.662;2023-06-26T15:09:55;41.50;27.00
31379;DHT22;61664;48.112;11.662;2023-06-26T15:12:22;41.00;27.50
31379;DHT22;61664;48.112;11.662;2023-06-26T15:14:50;40.80;27.60
31379;DHT22;61664;48.112;11.662;2023-06-26T15:17:18;40.60;27.50
31379;DHT22;61664;48.112;11.662;2023-06-26T15:19:45;40.60;27.90
31379;DHT22;61664;48.112;11.662;2023-06-26T15:22:12;40.50;27.00
31379;DHT22;61664;48.112;11.662;2023-06-26T15:24:39;40.40;27.30
31379;DHT22;61664;48.112;11.662;2023-06-26T15:27:05;40.10;27.20
31379;DHT22;61664;48.112;11.662;2023-06-26T15:32:05;39.40;27.10
31379;DHT22;61664;48.112;11.662;2023-06-26T15:34:32;39.00;27.40
31379;DHT22;61664;48.112;11.662;2023-06-26T15:36:59;38.60;27.70
31379;DHT22;61664;48.112;11.662;2023-06-26T15:39:26;38.30;27.10
31379;DHT22;61664;48.112;11.662;2023-06-26T15:41:53;37.90;27.30
31379;DHT22;61664;48.112;11.662;2023-06-26T15:44:19;37.60;27.20
31379;DHT22;61664;48.112;11.662;2023-06-26T15:46:46;37.30;27.40
31379;DHT22;61664;48.112;11.662;2023-06-26T15:49:13;36.90;27.40
31379;DHT22;61664;48.112;11.662;2023-06-26T15:51:40;36.70;27.60
31379;DHT22;61664;48.112;11.662;2023-06-26T15:54:08;36.40;27.20
31379;DHT22;61664;48.112;11.662;2023-06-26T15:56:35;36.00;27.30